ARCADIAN GRIT & GRAVEL
Saturday, May 19, 2012
Results by Race Services Company
Finish Order

Place No. Name Category Sponsor Time
1 1 Jorden Wakeley Men Pro/elite Einstein Racing 1:28:51
2 13 John Cowan Men Pro/elite North Country Cycle Sport 1:32:38
3 14 Jeff Craven Men Pro/elite City Bike Shop 1:39:23
4 22 Ron Sanborn Men Pro/elite Einstein Racing 1:41:14
5 23 Ty Schmidt Men Pro/elite Einstein Racing 1:41:56
6 15 Shawn Davison Men Pro/elite Farm Team Racing 1:42:24
7 61 Ken Blakey-Shell Men 30-39 The Outpost 1:42:29
8 126 David Maclean Men 50 & Over Shoreline Cycling Club 1:42:29
9 7180 Tom White Men 40-49 City Bike Shop! 1:43:18
10 53 Stephen Andriese Single Speed Hagerty Racing 1:43:38
11 7176 Craig Webb Men 50 & Over Hagerty Cycling 1:44:06
12 7191 Doug Wipperman Men 40-49 Boones Long Love 1:45:00
13 123 Scott Luca Men 40-49 Einstein Cycle 1:45:08
14 24 Alex Schultz Men Pro/elite Rbs 1:45:17
15 10 Susan Stephens Women Pro/elite 1:45:32
16 17 Jeffrey Jacobi Men Pro/elite Founders/alger Racing 1:45:33
17 100 Patrick Hornacek Men 30-39 Spin-To-Win 1:45:39
18 98 Joshua Hogeterp Men 30-39 Founders/alger Racing 1:45:40
19 7183 Jeff Zeller Men 40-49 Quiring Cycles 1:45:43
20 146 Mike Okma Men 29 & Under Hagerty 1:45:43
21 7188 Jeb Stone Men 30-39 1:45:47
22 110 Jeremy Karel Men 29 & Under Founders / Alger Racing 1:45:53
23 7187 James Gomez Men 40-49 Cross Country Cycle/q 1:46:18
24 20 Chris Kushman Men Pro/elite Einstein Racing 1:46:24
25 112 Jack Kline Men 50 & Over Epichappens Race Team 1:47:21
26 6 Tyler Kelly Men Pro/elite Brick Wheels 1:48:20
27 4 Jeff Haney Men Pro/elite Bissell/abg 1:48:38
28 143 Jonathan Nesburg Men 29 & Under 1:48:57
29 21 Jason Lowetz Men Pro/elite 1:49:29
30 156 Matt Remelts Men 30-39 Founders/alger Racing 1:50:06
31 62 Tim Bottrell Men 30-39 Einstein Racing 1:50:31
32 7145 Clete Swanson Men 50 & Over 1:50:39
33 7173 Dave Walston Men 40-49 Gtmba 1:50:39
34 88 Jake Grevenstuk Men 29 & Under 1:50:59
35 150 Dan Packer Single Speed City Bike Shop 1:50:59
36 162 Jason Rohraff Men 30-39 Einstein Racing 1:51:08
37 75 Tim Curtis Men 50 & Over Founders/alger Racing 1:51:26
38 69 Marc Brunette Men 30-39 Epichappens Race Team 1:51:47
39 7195 Mike Senters Men 40-49 The Outpost 1:51:48
40 7199 Ryan Olthouse Single Speed Hell Yes/velocity 1:52:36
41 163 Glen Ruczynski Men 30-39 City Bike Tc 1:53:04
42 7172 Mike Vanhouten Men 50 & Over Bissell/abg 1:53:48
43 63 Chuck Brenner Men 40-49 Wsi / Team Active Racing 1:53:59
44 157 Bertram Reynolds Men 40-49 Tnr 1:54:15
45 139 Dean Murphey Men 30-39 City Bike Shop 1:54:17
46 173 Scott Sikkema Men 40-49 Freewheeler Racing 1:54:33
47 94 Chad Haskin Men 30-39 Spin-To-Win 1:54:33
48 154 Fabrice Portes Men 40-49 Wolverine Sports Club 1:54:34
49 168 Michael Seaman Single Speed Specialized 1:55:11
50 109 Ben Kapenga Men 30-39 Freewheeler Bike Shop 1:55:51
51 80 Rugg Foltz Men 40-49 Freewheeler Bike Shop 1:56:01
52 7171 Tom Turner Men 40-49 1:56:12
53 148 Matthew Oppermann Men 40-49 Racing For Mom 1:56:37
54 19 Kati Krikke Women Pro/elite Freewheeler Racing 1:56:45
55 65 Cameron Brown Men 29 & Under 1:56:49
56 7 Charlie Brecheisen Men Pro/elite Twisted Stone/lattitude 45 1:56:54
57 7178 Jeff Wentzloff Men 30-39 Gtoc 1:57:17
58 105 Mitchell Janicki Men 29 & Under Ls Racing 1:57:58
59 7150 David Tietz Single Speed 1:57:58
60 79 Jeremy Flynn Men 30-39 1:58:04
61 177 Ed Stein Men 29 & Under L.S. Racing 1:58:31
62 7198 Andy Brown Men 30-39 Mtblife-Soul Cycles 1:58:48
63 117 Jon Lebarre Men 40-49 1:58:59
64 7149 Scott Thenikl Men 30-39 Founders Racing 1:59:01
65 85 Dan Geerlings Men 30-39 1:59:01
66 114 Scott Labonte Men 30-39 1:59:04
67 144 Craig North Men 50 & Over Aavc 1:59:07
68 113 Brian Klomp Men 29 & Under Dte 1:59:38
69 129 Jerry Mathias Men 50 & Over Tnr 1:59:44
70 83 Jeff Galsterer Men 40-49 Einstein Racing 1:59:56
71 111 Mark King Men 30-39 Auxiliary Advertising And Design 2:00:21
72 137 Rob Mitzel Men 40-49 2:00:22
73 161 Scott Roerig Men 50 & Over Tnr 2:01:07
74 90 Peter Gurney Single Speed Twisted Stone/latitude 45 2:01:08
75 87 Adam Granger Men 30-39 Rusty Cranks 2:01:09
76 7175 Richard Watson Men 40-49 Fusion Cycling Team 2:01:11
77 169 John Sekendy Men 40-49 2:01:55
78 92 Martin Hall Men 50 & Over Founders Alger Racing 2:02:18
79 7148 Marnie Tencate Women 40-49 Founders/alger 2:02:19
80 142 Dave Nesburg Men 50 & Over 2:02:19
81 136 Robert Millen Men 30-39 2:02:19
82 78 Brian Ernst Single Speed Tnr 2:02:52
83 7192 Scott Quiring Tandem Quiring Cycles Llc 2:03:11
84 56 Jeremiah Avery Men 30-39 Rusty Cranks 2:03:46
85 67 Iceman Brown Men 50 & Over 2:04:07
86 7200 Heather Kettelhonn Women 30-39 Tcc 2:04:09
87 70 Gary Church Men 40-49 2:04:09
88 104 Yarro Ireland Men 30-39 Leon Hand-Crafted Speakers 2:04:10
89 127 Jason Mahokey Men 40-49 Xxc Magazine/xxcmag.Com 2:04:12
90 7186 Jakub Malarz Men 30-39 Tri-City Cyclists Race Team 2:05:03
91 54 Vince Anila Men 30-39 Racing Greyhounds 2:05:30
92 27 Laura Webb Women Pro/elite Webbcorp 2:05:37
93 7185 Gregory Worsnop Men 50 & Over Kalamazoo Nordic 2:05:46
94 96 David Heim Jr Men 50 & Over City Bike Shop 2:06:06
95 50 Mark Allen Men 50 & Over 2:06:13
96 7147 James Taylor Men 40-49 2:07:00
97 55 Duane Archambo Men 50 & Over Boones Long Lake Inn 2:08:21
98 151 Dan L Packer Men 50 & Over City Bike Shop 2:08:21
99 103 Steve Insley Men 40-49 Off Camber Racing 2:08:22
100 152 John Paul Men 30-39 2:08:23
101 73 Joshua Courtright Men 29 & Under 2:08:31
102 118 Bobbie Liegl Women 30-39 Twisted Stone/latitude 45 2:08:50
103 135 Dave Millar Men 40-49 2:09:32
104 8 Zandra Hudson Women Pro/elite Mtblife-Soul Cycles 2:10:07
105 106 Ryan Jarosz Men 30-39 2:10:25
106 167 Rob Schell Men 50 & Over 2:11:03
107 97 Devin L. Hill Men 50 & Over Boones Long Lake Inn 2:12:01
108 176 John Slater Men 30-39 Dte 2:12:14
109 7193 Jim Hills Men 40-49 City Bike Shop 2:12:19
110 145 Dylan North Men 29 & Under 2:12:58
111 84 Michael Gaylord Men 30-39 2:13:15
112 52 Andy Amstutz Single Speed 2:13:22
113 166 Emily Savickis Women 29 & Under Gtmtba 2:13:29
114 7197 Kristopher Sands Men 40-49 McClain 2:13:43
115 26 Chelsea Strate Women Pro/elite Einstein Racing 2:13:51
116 7174 Andrew Wasco Men 40-49 2:14:02
117 57 Kirk Bankes Men 40-49 2:14:11
118 74 Chad Craker Men 40-49 2:15:37
119 7181 Sara Williams Women 40-49 Wsi / Team Active Racing 2:15:39
120 102 Doug Huyser Men 50 & Over Speed Merchants 2:16:54
121 66 Greg Brown Men 29 & Under Priority Health 2:16:57
122 134 Albert Mickalich Men 50 & Over The Flyin Rhinos 2:17:14
123 59 Richard Bazzy Men 50 & Over 2:17:21
124 165 Greg Ryan Men 40-49 2:17:43
125 7170 Tobi Tungl Men 29 & Under 2:17:55
126 128 Peter Maiers Men 30-39 2:18:09
127 93 Robert Hall Men 40-49 City Bike 2:19:24
128 28 Bryan/vita Sheffield/morse Tandem 2:19:32
129 7196 Matt Hodges Men 29 & Under Epichappens Race Team 2:19:40
130 86 Jeff Gordon Men 30-39 2:20:30
131 7137 George Sveda Men 50 & Over 2:21:00
132 180 Roger Sullivan Men 50 & Over 2:21:04
133 7190 Chris Calhoun Men 30-39 Bike Lab 2:21:05
134 131 Joe McKenzie Men 30-39 2:21:05
135 170 Kurt Shields Men 50 & Over 2:21:07
136 51 Drew Alpers Men 30-39 2:21:14
137 120 Scott Lint Men 50 & Over 2:21:23
138 18 Daniel Kaupas Men Pro/elite Brick Heads 2:21:41
139 178 Ron Suciu Men 50 & Over 2:22:11
140 82 Joseph Frederick Single Speed 2:22:16
141 7179 Kevin Wethy Men 40-49 2:24:09
142 60 Mary Bereza Women 30-39 Spin-To-Win 2:25:09
143 149 Luke Osborn Men 30-39 2:25:43
144 7169 Darren Tillbrooke Men 40-49 Club Leadout 2:26:00
145 133 Steve Mentzer Men 50 & Over 2:26:15
146 164 Joe Rumney Men 30-39 2:27:07
147 89 Janet Grimm Women 50 & Over Dark Horse 2:27:18
148 101 Mark Horsley Men 50 & Over 2:30:59
149 124 John Lugauer Men 40-49 2:32:43
150 72 Greg Cook Men 50 & Over 2:32:56
151 155 Pauline Portes Women 29 & Under Wolverine Sports Club 2:33:12
152 91 Valerie Hadrot-Portes Women 40-49 Wolverine Sports Club 2:33:13
153 68 Kurt Brown Men 29 & Under Iceman 2:34:03
154 7182 Randy Winans Men 50 & Over 2:34:03
155 7194 Jeff Betz Men 50 & Over Trailhead Bike Shop 2:34:14
156 7189 Jan Toscano Women 50 & Over 2:34:49
157 7177 Mike Weingate Men 50 & Over 2:35:08
158 107 Jake Kaberle Men 30-39 Boone's Long Lake Inn 2:36:21
159 174 Keith Skidmore Men 40-49 2:37:47
160 81 Brian Forhan Men 40-49 2:38:26
161 76 Stephanie Dow Women 50 & Over Boones Long Lake Inn 2:43:17
162 171 Mark Sholtis Men 50 & Over Dreamliner 2:44:06
163 119 Jed Lindstrom Men 50 & Over 2:44:35
164 116 David Le Clear Men 30-39 2:44:41
165 141 Paul Nederveld Men 30-39 Fusion Cycling P/b Livestrong 2:56:01
166 175 Dave Slater Men 30-39 2:59:36
167 95 Grant Hedley Single Speed Right Brain Brewery 3:04:42
168 29 Michael/don Neimi/wood Tandem Cannondale Midwest Racing 3:07:54
169 158 Merrick Richardson Men 40-49 Fattires 3:08:00
170 172 Mark(ii) Sholtis Men 29 & Under Dreamliner 3:09:53
171 160 Kirk Roerig Men 29 & Under Tnr 3:22:28